Time;durP1;ratioP1;P1;durP2;ratioP2;P2;SDS_P1;SDS_P2;PMS_P1;PMS_P2;Temp;Humidity;BMP_temperature;BMP_pressure;BME280_temperature;BME280_humidity;BME280_pressure;Samples;Min_cycle;Max_cycle;Signal;HPM_P1;HPM_P2
2024/01/18 00:00:55;;;;;;;14.43;6.07;;;1.30;99.90;;;;;;5062380;28;37915;-78
2024/01/18 00:03:21;;;;;;;10.60;5.47;;;1.30;99.90;;;;;;5080053;28;41566;-78
2024/01/18 00:05:47;;;;;;;13.37;5.67;;;1.40;99.90;;;;;;5084296;28;37724;-76
2024/01/18 00:08:13;;;;;;;15.37;5.93;;;1.40;99.90;;;;;;5077649;28;37698;-77
2024/01/18 00:10:39;;;;;;;12.13;6.00;;;1.40;99.90;;;;;;5092477;28;41088;-77
2024/01/18 00:13:05;;;;;;;9.60;5.47;;;1.40;99.00;;;;;;5073032;28;37495;-76
2024/01/18 00:15:32;;;;;;;16.63;5.37;;;1.40;97.70;;;;;;5088305;28;37771;-78
2024/01/18 00:17:58;;;;;;;16.13;6.80;;;1.30;97.10;;;;;;5084133;28;36026;-77
2024/01/18 00:20:24;;;;;;;13.97;6.23;;;1.30;96.80;;;;;;5080451;28;37572;-77
2024/01/18 00:22:50;;;;;;;13.37;6.23;;;1.20;97.60;;;;;;5074753;28;37392;-78
2024/01/18 00:25:16;;;;;;;11.33;5.47;;;1.10;98.60;;;;;;5075129;28;38617;-77
2024/01/18 00:27:42;;;;;;;9.50;5.33;;;0.90;99.50;;;;;;5074509;28;36671;-78
2024/01/18 00:30:09;;;;;;;10.10;5.40;;;0.80;99.90;;;;;;5089113;28;37525;-79
2024/01/18 00:32:35;;;;;;;13.73;6.77;;;0.70;99.90;;;;;;5090936;28;37533;-78
2024/01/18 00:35:01;;;;;;;17.20;6.23;;;0.60;99.90;;;;;;5083149;28;37751;-78
2024/01/18 00:37:27;;;;;;;9.93;5.33;;;0.50;99.90;;;;;;5087867;28;37022;-79
2024/01/18 00:39:54;;;;;;;14.80;5.93;;;0.50;99.90;;;;;;5107212;28;38769;-79
2024/01/18 00:42:20;;;;;;;14.20;5.80;;;0.40;99.90;;;;;;5109729;28;38904;-79
2024/01/18 00:44:46;;;;;;;12.57;5.60;;;0.30;99.90;;;;;;5104864;28;38645;-79
2024/01/18 00:47:13;;;;;;;12.60;5.97;;;0.20;99.90;;;;;;5099333;28;36888;-79
2024/01/18 00:49:39;;;;;;;14.43;7.00;;;0.10;99.90;;;;;;5078391;28;38618;-78
2024/01/18 00:52:05;;;;;;;13.27;6.00;;;0.10;99.90;;;;;;5099074;28;39531;-79
2024/01/18 00:54:31;;;;;;;16.00;6.50;;;0.10;99.90;;;;;;5093211;28;36815;-78
2024/01/18 00:56:57;;;;;;;15.83;6.23;;;0.10;99.90;;;;;;5082810;28;35803;-78
2024/01/18 00:59:24;;;;;;;8.83;5.40;;;0.10;99.90;;;;;;5108030;28;39248;-78
2024/01/18 01:01:50;;;;;;;11.87;6.33;;;0.10;99.90;;;;;;5093582;28;37528;-78
2024/01/18 01:04:17;;;;;;;9.83;6.00;;;0.00;99.90;;;;;;5110675;28;38251;-78
2024/01/18 01:06:43;;;;;;;10.87;5.13;;;0.00;99.90;;;;;;5099057;28;37139;-78
2024/01/18 01:09:09;;;;;;;8.87;5.37;;;0.00;99.90;;;;;;5084263;28;37807;-78
2024/01/18 01:11:36;;;;;;;12.23;5.77;;;0.00;99.90;;;;;;5100162;28;38116;-78
2024/01/18 01:14:02;;;;;;;13.63;5.77;;;0.00;99.90;;;;;;5077954;28;37544;-79
2024/01/18 01:16:28;;;;;;;11.10;6.03;;;0.00;99.90;;;;;;5100146;27;37054;-78
2024/01/18 01:18:55;;;;;;;11.50;5.23;;;-0.10;99.90;;;;;;5090566;28;39665;-78
2024/01/18 01:21:21;;;;;;;10.07;5.57;;;-0.20;99.90;;;;;;5082473;28;38172;-78
2024/01/18 01:23:48;;;;;;;16.70;6.27;;;-0.20;99.90;;;;;;5111388;28;38313;-78
2024/01/18 01:26:15;;;;;;;10.83;5.73;;;-0.20;99.90;;;;;;5087541;28;36949;-79
2024/01/18 01:28:42;;;;;;;10.13;5.77;;;-0.30;99.90;;;;;;5063780;28;37683;-78
2024/01/18 01:31:09;;;;;;;11.63;6.20;;;-0.50;99.90;;;;;;5075554;28;37326;-79
2024/01/18 01:33:38;;;;;;;12.63;6.00;;;-0.50;99.90;;;;;;5092454;28;37809;-78
2024/01/18 01:36:05;;;;;;;13.17;6.67;;;-0.60;99.90;;;;;;5084628;28;35779;-78
2024/01/18 01:38:31;;;;;;;11.23;5.90;;;-0.70;99.90;;;;;;5096650;28;38172;-78
2024/01/18 01:40:58;;;;;;;11.43;6.43;;;-0.70;99.90;;;;;;5088308;28;37595;-79
2024/01/18 01:43:24;;;;;;;12.03;5.57;;;-0.80;99.90;;;;;;5088654;28;36610;-79
2024/01/18 01:45:50;;;;;;;16.50;6.60;;;-0.80;99.90;;;;;;5081989;28;36266;-78
2024/01/18 01:48:17;;;;;;;13.53;6.17;;;-0.90;99.90;;;;;;5100162;27;38740;-79
2024/01/18 01:50:43;;;;;;;11.07;6.33;;;-1.00;99.90;;;;;;5109116;28;38522;-79
2024/01/18 01:53:11;;;;;;;17.80;7.03;;;-1.00;99.90;;;;;;5098946;28;37759;-78
2024/01/18 01:55:38;;;;;;;14.43;6.17;;;-1.00;99.90;;;;;;5090430;28;37112;-78
2024/01/18 01:58:07;;;;;;;12.97;6.40;;;-1.10;99.90;;;;;;5083732;28;37778;-79
2024/01/18 02:03:13;;;;;;;12.87;5.83;;;-1.20;99.90;;;;;;6009624;22;20037;-81
2024/01/18 02:06:03;;;;;;;11.70;5.83;;;-1.20;99.90;;;;;;5067164;27;38584;-82
2024/01/18 02:08:42;;;;;;;16.67;6.37;;;-1.30;99.90;;;;;;5020293;28;50175;-81
2024/01/18 02:11:45;;;;;;;16.83;6.23;;;-1.20;99.90;;;;;;5015475;28;39641;-79
2024/01/18 02:14:16;;;;;;;15.00;6.10;;;-1.20;99.90;;;;;;5030269;28;38598;-82
2024/01/18 02:16:51;;;;;;;18.23;7.90;;;-1.20;99.90;;;;;;5036840;28;36173;-81
2024/01/18 02:19:24;;;;;;;15.97;5.50;;;-1.10;99.90;;;;;;5054577;28;39049;-82
2024/01/18 02:22:14;;;;;;;17.80;6.07;;;-1.00;99.90;;;;;;5044901;28;39695;-81
2024/01/18 02:24:50;;;;;;;14.40;4.67;;;-0.80;99.90;;;;;;5021970;28;47881;-81
2024/01/18 02:27:19;;;;;;;11.17;4.93;;;-0.70;99.90;;;;;;5032760;28;36304;-80
2024/01/18 02:29:48;;;;;;;17.27;4.40;;;-0.50;99.90;;;;;;5031330;28;39161;-80
2024/01/18 02:32:22;;;;;;;12.60;4.17;;;-0.40;99.90;;;;;;5028066;28;38846;-79
2024/01/18 02:34:51;;;;;;;12.15;4.00;;;-0.20;99.90;;;;;;5010340;28;38015;-81
2024/01/18 02:37:20;;;;;;;8.43;3.60;;;-0.10;99.90;;;;;;5021602;28;37720;-80
2024/01/18 02:39:48;;;;;;;10.87;3.27;;;0.00;99.90;;;;;;5038904;28;42001;-81
2024/01/18 02:42:18;;;;;;;7.67;3.07;;;0.10;99.90;;;;;;5052440;28;37653;-81
2024/01/18 02:44:48;;;;;;;9.27;2.27;;;0.30;99.90;;;;;;5063632;28;38094;-81
2024/01/18 02:47:15;;;;;;;6.33;1.93;;;0.50;99.90;;;;;;5059204;28;36131;-82
2024/01/18 02:49:45;;;;;;;7.30;2.30;;;0.50;99.90;;;;;;5053942;28;38460;-81
2024/01/18 02:52:18;;;;;;;7.17;1.80;;;0.60;99.90;;;;;;5070945;28;38166;-80
2024/01/18 02:54:44;;;;;;;6.17;1.63;;;0.60;99.70;;;;;;5074228;28;38135;-81
2024/01/18 02:57:13;;;;;;;10.10;2.20;;;0.50;98.90;;;;;;5091872;27;36493;-80
2024/01/18 02:59:47;;;;;;;12.13;1.63;;;0.40;99.60;;;;;;5074196;28;37797;-82
2024/01/18 03:02:14;;;;;;;10.47;2.00;;;0.30;99.90;;;;;;5059933;28;37928;-79
2024/01/18 03:04:45;;;;;;;8.70;1.60;;;0.30;99.90;;;;;;5076708;28;38230;-82
2024/01/18 03:07:15;;;;;;;5.87;1.67;;;0.20;99.90;;;;;;5085245;28;36584;-80
2024/01/18 03:09:45;;;;;;;4.30;1.40;;;0.10;99.90;;;;;;5057570;28;37939;-81
2024/01/18 03:12:15;;;;;;;3.67;1.33;;;0.10;99.90;;;;;;5058853;28;38561;-84
2024/01/18 03:14:42;;;;;;;3.37;1.50;;;0.00;99.90;;;;;;5048876;28;36921;-80
2024/01/18 03:17:09;;;;;;;7.37;1.77;;;-0.10;99.90;;;;;;5048784;28;37721;-81
2024/01/18 03:19:38;;;;;;;5.73;1.73;;;-0.10;99.90;;;;;;5054518;28;39099;-81
2024/01/18 03:22:07;;;;;;;6.23;1.57;;;-0.10;99.90;;;;;;5058141;28;38735;-82
2024/01/18 03:24:33;;;;;;;3.50;1.47;;;-0.10;99.90;;;;;;5066007;28;39419;-82
2024/01/18 03:27:00;;;;;;;5.17;1.80;;;-0.20;99.90;;;;;;5057530;28;36337;-81
2024/01/18 03:29:30;;;;;;;6.23;1.50;;;-0.20;99.90;;;;;;5062562;28;38973;-80
2024/01/18 03:32:15;;;;;;;5.37;1.83;;;-0.30;99.90;;;;;;5065417;28;38822;-81
2024/01/18 03:34:42;;;;;;;9.27;2.00;;;-0.40;99.90;;;;;;5057619;28;37421;-81
2024/01/18 03:37:10;;;;;;;6.77;1.80;;;-0.50;99.90;;;;;;5056475;28;37276;-81
2024/01/18 03:39:49;;;;;;;7.33;1.93;;;-0.60;99.90;;;;;;5061102;28;39051;-82
2024/01/18 03:42:21;;;;;;;10.07;2.23;;;-0.70;99.90;;;;;;5045072;28;38539;-82
2024/01/18 03:44:49;;;;;;;8.73;2.17;;;-0.70;99.90;;;;;;5054827;28;36999;-83
2024/01/18 03:47:16;;;;;;;8.03;1.40;;;-0.70;99.90;;;;;;5055102;28;37654;-80
2024/01/18 03:49:54;;;;;;;4.07;1.50;;;-0.80;99.90;;;;;;5045422;28;37883;-81
2024/01/18 03:52:23;;;;;;;5.73;1.43;;;-0.90;99.90;;;;;;5058338;28;39153;-82
2024/01/18 03:54:50;;;;;;;10.77;1.70;;;-1.00;99.90;;;;;;5064443;28;38409;-81
2024/01/18 03:57:17;;;;;;;6.27;1.93;;;-1.10;99.90;;;;;;5067560;28;36057;-80
2024/01/18 03:59:47;;;;;;;6.23;1.97;;;-1.30;99.90;;;;;;5058387;28;38782;-81
2024/01/18 04:02:15;;;;;;;9.47;2.13;;;-1.30;99.90;;;;;;5044184;28;40446;-80
2024/01/18 04:04:42;;;;;;;4.80;1.47;;;-1.40;99.90;;;;;;5068546;28;38717;-83
2024/01/18 04:07:27;;;;;;;7.93;1.90;;;-1.40;99.90;;;;;;5041800;28;37172;-80
2024/01/18 04:09:54;;;;;;;3.90;1.70;;;-1.50;99.90;;;;;;5053087;28;38836;-81
2024/01/18 04:12:21;;;;;;;6.77;1.50;;;-1.60;99.90;;;;;;5077939;28;37309;-82
2024/01/18 04:14:49;;;;;;;6.90;2.27;;;-1.60;99.90;;;;;;5052942;28;37395;-82
2024/01/18 04:17:16;;;;;;;4.83;1.80;;;-1.60;99.90;;;;;;5064483;28;38223;-82
2024/01/18 04:19:43;;;;;;;6.63;1.70;;;-1.70;99.90;;;;;;5047654;28;38885;-83
2024/01/18 04:22:12;;;;;;;5.37;2.20;;;-1.70;99.90;;;;;;5056392;28;40085;-82
2024/01/18 04:24:38;;;;;;;6.53;1.60;;;-1.70;99.90;;;;;;5048289;28;39322;-79
2024/01/18 04:27:05;;;;;;;8.57;2.50;;;-1.70;99.90;;;;;;5067560;28;38023;-82
2024/01/18 04:29:31;;;;;;;4.53;1.43;;;-1.70;99.90;;;;;;5075153;28;40725;-82
2024/01/18 04:31:58;;;;;;;5.03;1.93;;;-1.80;99.90;;;;;;5057297;28;37654;-81
2024/01/18 04:34:25;;;;;;;8.67;1.90;;;-1.80;99.90;;;;;;5057155;28;37920;-80
2024/01/18 04:36:51;;;;;;;6.63;2.17;;;-1.80;99.90;;;;;;5067792;28;38029;-81
2024/01/18 04:39:18;;;;;;;6.63;1.70;;;-1.90;99.90;;;;;;5035671;28;37515;-81
2024/01/18 04:41:44;;;;;;;3.60;1.57;;;-1.90;99.90;;;;;;5058757;28;39771;-81
2024/01/18 04:44:13;;;;;;;4.57;1.93;;;-1.90;99.90;;;;;;5068339;28;38878;-81
2024/01/18 04:46:40;;;;;;;7.33;2.03;;;-1.90;99.90;;;;;;5074866;28;37524;-81
2024/01/18 04:49:07;;;;;;;9.63;2.20;;;-2.00;99.90;;;;;;5066486;28;38535;-80
2024/01/18 04:51:34;;;;;;;4.83;2.30;;;-2.00;99.90;;;;;;5072946;28;37748;-80
2024/01/18 04:54:00;;;;;;;7.43;2.47;;;-2.10;99.90;;;;;;5062543;28;39514;-80
2024/01/18 04:56:27;;;;;;;9.23;2.83;;;-2.10;99.90;;;;;;5070907;28;47513;-80
2024/01/18 04:58:54;;;;;;;11.30;2.80;;;-2.10;99.90;;;;;;5063952;28;38206;-79
2024/01/18 05:01:20;;;;;;;9.17;2.97;;;-2.10;99.90;;;;;;5067577;28;38320;-79
2024/01/18 05:03:47;;;;;;;7.37;3.13;;;-2.10;99.90;;;;;;5048318;28;39220;-82
2024/01/18 05:06:13;;;;;;;5.50;2.87;;;-2.10;99.90;;;;;;5066570;28;39989;-80
2024/01/18 05:08:39;;;;;;;7.47;3.10;;;-2.10;99.90;;;;;;5063052;28;39475;-80
2024/01/18 05:11:08;;;;;;;8.33;3.13;;;-2.10;99.90;;;;;;5049146;28;37797;-80
2024/01/18 05:13:34;;;;;;;7.87;2.83;;;-2.20;99.90;;;;;;5046166;28;38289;-79
2024/01/18 05:16:01;;;;;;;8.10;3.20;;;-2.20;99.90;;;;;;5067518;28;36452;-79
2024/01/18 05:18:28;;;;;;;10.30;3.40;;;-2.30;99.90;;;;;;5046496;28;47309;-79
2024/01/18 05:20:54;;;;;;;8.00;3.00;;;-2.30;99.90;;;;;;5052694;28;37526;-80
2024/01/18 05:23:20;;;;;;;8.67;3.33;;;-2.30;99.90;;;;;;5053551;28;37280;-81
2024/01/18 05:25:46;;;;;;;6.93;2.90;;;-2.30;99.90;;;;;;5066509;28;35870;-80
2024/01/18 05:28:14;;;;;;;9.40;3.37;;;-2.30;99.90;;;;;;5053063;28;38154;-79
2024/01/18 05:30:40;;;;;;;10.47;3.20;;;-2.40;99.90;;;;;;5062488;28;37689;-81
2024/01/18 05:33:07;;;;;;;12.53;3.00;;;-2.40;99.90;;;;;;5050637;28;36983;-79
2024/01/18 05:35:33;;;;;;;8.07;3.43;;;-2.40;99.90;;;;;;5051674;28;36836;-79
2024/01/18 05:38:00;;;;;;;14.20;5.80;;;-2.40;99.90;;;;;;5041955;28;37306;-80
2024/01/18 05:40:26;;;;;;;11.30;5.33;;;-2.40;99.90;;;;;;5046516;28;37868;-78
2024/01/18 05:42:52;;;;;;;15.50;7.97;;;-2.40;99.90;;;;;;5051520;28;39391;-79
2024/01/18 05:45:18;;;;;;;16.60;6.87;;;-2.40;99.90;;;;;;5038246;28;35782;-81
2024/01/18 05:47:44;;;;;;;13.03;6.83;;;-2.40;99.90;;;;;;5047366;28;39526;-78
2024/01/18 05:53:35;;;;;;;15.40;7.27;;;-2.40;99.90;;;;;;4988968;28;48730;-80
2024/01/18 05:56:01;;;;;;;16.37;7.57;;;-2.50;99.90;;;;;;5034688;28;37743;-79
2024/01/18 05:58:31;;;;;;;14.67;6.00;;;-2.50;99.90;;;;;;5053299;28;38821;-79
2024/01/18 06:00:57;;;;;;;12.93;5.80;;;-2.50;99.90;;;;;;5039552;28;37870;-79
2024/01/18 06:03:23;;;;;;;10.50;4.87;;;-2.50;99.90;;;;;;5037091;28;40292;-80
2024/01/18 06:05:49;;;;;;;8.90;5.03;;;-2.50;99.90;;;;;;5054774;28;37571;-80
2024/01/18 06:08:16;;;;;;;9.63;5.67;;;-2.50;99.90;;;;;;5032938;28;37511;-79
2024/01/18 06:10:43;;;;;;;13.77;5.37;;;-2.50;99.90;;;;;;5041890;28;37763;-79
2024/01/18 06:13:09;;;;;;;11.07;5.17;;;-2.50;99.90;;;;;;5060868;28;37225;-78
2024/01/18 06:15:36;;;;;;;10.87;4.87;;;-2.50;99.90;;;;;;5047284;28;36603;-78
2024/01/18 06:18:05;;;;;;;12.50;4.57;;;-2.50;99.90;;;;;;5041452;28;37907;-79
2024/01/18 06:20:32;;;;;;;12.57;3.93;;;-2.60;99.90;;;;;;5054721;28;37601;-80
2024/01/18 06:22:58;;;;;;;9.23;5.67;;;-2.60;99.90;;;;;;5039060;28;38639;-79
2024/01/18 06:25:25;;;;;;;9.90;5.20;;;-2.60;99.90;;;;;;5051429;28;36801;-79
2024/01/18 06:27:51;;;;;;;15.23;5.13;;;-2.60;99.90;;;;;;5042290;28;38042;-80
2024/01/18 06:30:18;;;;;;;12.67;4.73;;;-2.60;99.90;;;;;;5029264;28;38513;-77
2024/01/18 06:32:44;;;;;;;9.90;4.40;;;-2.70;99.90;;;;;;5032769;28;35581;-80
2024/01/18 06:35:14;;;;;;;14.07;5.37;;;-2.70;99.90;;;;;;5040587;28;37128;-78
2024/01/18 06:37:41;;;;;;;9.23;4.53;;;-2.70;99.90;;;;;;5026252;28;37320;-81
2024/01/18 06:40:18;;;;;;;14.87;5.00;;;-2.60;99.90;;;;;;5038647;28;37458;-79
2024/01/18 06:42:44;;;;;;;8.23;4.47;;;-2.70;99.90;;;;;;5041487;28;38585;-80
2024/01/18 06:45:14;;;;;;;9.80;3.80;;;-2.70;99.90;;;;;;5038760;28;37625;-78
2024/01/18 06:47:40;;;;;;;14.87;4.80;;;-2.70;99.90;;;;;;5038954;28;38753;-78
2024/01/18 06:50:09;;;;;;;10.37;4.73;;;-2.70;99.90;;;;;;5018551;28;36927;-78
2024/01/18 06:52:38;;;;;;;10.87;4.90;;;-2.80;99.90;;;;;;5011463;28;39845;-81
2024/01/18 06:55:06;;;;;;;9.73;4.67;;;-2.80;99.90;;;;;;5032355;28;36249;-79
2024/01/18 06:57:32;;;;;;;10.50;5.53;;;-2.80;99.90;;;;;;5034240;28;47045;-77
2024/01/18 06:59:59;;;;;;;11.93;5.13;;;-2.90;99.90;;;;;;5035218;28;38044;-78
2024/01/18 07:02:25;;;;;;;9.27;5.07;;;-2.90;99.90;;;;;;5044302;28;39238;-79
2024/01/18 07:04:51;;;;;;;11.63;4.50;;;-2.90;99.90;;;;;;5021897;28;36832;-79
2024/01/18 07:07:17;;;;;;;8.33;4.27;;;-2.90;99.90;;;;;;5032928;28;37611;-81
2024/01/18 07:09:45;;;;;;;12.07;5.17;;;-2.80;99.90;;;;;;5046031;28;37908;-80
2024/01/18 07:12:11;;;;;;;13.00;4.37;;;-2.70;99.90;;;;;;5056420;28;37315;-80
2024/01/18 07:14:39;;;;;;;12.07;4.53;;;-2.60;99.90;;;;;;5055044;28;37029;-81
2024/01/18 07:17:05;;;;;;;11.40;4.27;;;-2.20;99.90;;;;;;5035855;28;37760;-82
2024/01/18 07:19:31;;;;;;;8.03;4.13;;;-1.40;99.90;;;;;;5035829;28;40020;-80
2024/01/18 07:21:57;;;;;;;12.73;2.67;;;-1.10;99.90;;;;;;5024244;28;37408;-80
2024/01/18 07:24:27;;;;;;;3.47;1.80;;;-0.80;99.90;;;;;;5051311;28;36179;-81
2024/01/18 07:26:54;;;;;;;7.13;2.53;;;-0.50;99.90;;;;;;5042364;28;38234;-80
2024/01/18 07:32:01;;;;;;;3.63;2.27;;;-0.60;99.90;;;;;;3279442;26;20045;-81
2024/01/18 07:34:29;;;;;;;5.90;2.20;;;-0.60;99.90;;;;;;5026951;28;37284;-80
2024/01/18 07:36:58;;;;;;;6.70;2.00;;;-0.70;99.90;;;;;;5042376;28;39039;-81
2024/01/18 07:39:28;;;;;;;5.43;2.50;;;-0.90;99.90;;;;;;5040482;28;38146;-81
2024/01/18 07:42:01;;;;;;;9.80;2.63;;;-1.00;99.90;;;;;;5042584;28;38131;-80
2024/01/18 07:44:49;;;;;;;8.50;2.33;;;-1.10;99.90;;;;;;5028365;28;48944;-81
2024/01/18 07:47:20;;;;;;;6.23;2.20;;;-1.20;99.90;;;;;;5039090;28;38526;-82
2024/01/18 07:49:51;;;;;;;4.72;2.28;;;-1.30;99.90;;;;;;5037551;28;38671;-80
2024/01/18 07:52:30;;;;;;;4.30;2.20;;;-1.40;99.90;;;;;;5038879;28;37797;-80
2024/01/18 07:55:01;;;;;;;3.10;2.20;;;-1.60;99.90;;;;;;5043805;28;38476;-81
2024/01/18 07:57:31;;;;;;;4.30;2.10;;;-1.70;99.90;;;;;;5038895;28;39220;-81
2024/01/18 08:00:03;;;;;;;7.00;2.60;;;-1.80;99.90;;;;;;5041247;28;39783;-82
2024/01/18 08:02:32;;;;;;;2.60;2.33;;;-1.80;99.90;;;;;;5047795;28;39190;-80
2024/01/18 08:05:03;;;;;;;6.37;2.53;;;-1.90;99.90;;;;;;5043889;28;38115;-81
2024/01/18 08:07:38;;;;;;;4.50;2.03;;;-1.90;99.90;;;;;;5023414;28;49590;-81
2024/01/18 08:10:13;;;;;;;5.03;2.37;;;-2.00;99.90;;;;;;5041178;28;38773;-80
2024/01/18 08:13:31;;;;;;;4.77;2.90;;;-2.00;99.90;;;;;;5031154;28;48854;-80
2024/01/18 08:16:09;;;;;;;6.67;2.90;;;-2.00;99.90;;;;;;5035245;28;50004;-80
2024/01/18 08:18:39;;;;;;;6.87;2.50;;;-2.00;99.90;;;;;;5049959;22;39210;-79
2024/01/18 08:21:05;;;;;;;3.33;2.80;;;-2.00;99.90;;;;;;5024528;28;37943;-79
2024/01/18 08:23:32;;;;;;;4.50;2.70;;;-2.10;99.90;;;;;;5029935;28;38299;-80
2024/01/18 08:25:58;;;;;;;5.83;2.70;;;-2.10;99.90;;;;;;5023752;28;37352;-77
2024/01/18 08:28:24;;;;;;;8.53;3.40;;;-2.10;99.90;;;;;;5020075;28;38794;-81
2024/01/18 08:30:50;;;;;;;8.57;3.10;;;-2.10;99.90;;;;;;5027083;28;39554;-78
2024/01/18 08:33:18;;;;;;;8.73;3.00;;;-2.10;99.90;;;;;;5020366;28;37229;-79
2024/01/18 08:35:44;;;;;;;5.20;2.67;;;-2.10;99.90;;;;;;5032517;28;36453;-79
2024/01/18 08:38:10;;;;;;;4.97;2.83;;;-2.10;99.90;;;;;;5031902;28;37849;-79
2024/01/18 08:40:36;;;;;;;4.87;2.77;;;-2.10;99.90;;;;;;5040960;28;38538;-79
2024/01/18 08:43:03;;;;;;;5.20;2.30;;;-2.10;99.90;;;;;;5052557;28;37088;-80
2024/01/18 08:45:29;;;;;;;6.97;2.33;;;-2.00;99.90;;;;;;5024788;28;36446;-79
2024/01/18 08:47:56;;;;;;;6.77;2.83;;;-2.00;99.90;;;;;;5040707;28;39531;-79
2024/01/18 08:50:23;;;;;;;12.97;3.80;;;-1.80;99.90;;;;;;5028114;28;37842;-80
2024/01/18 08:52:53;;;;;;;11.23;3.17;;;-1.70;99.90;;;;;;5024909;28;37384;-79
2024/01/18 08:55:20;;;;;;;10.93;3.33;;;-1.60;99.90;;;;;;5023301;28;36447;-80
2024/01/18 08:57:47;;;;;;;13.87;3.47;;;-1.40;99.90;;;;;;5029279;28;38064;-79
2024/01/18 09:00:17;;;;;;;12.80;3.83;;;-1.20;99.90;;;;;;5030053;28;38393;-79
2024/01/18 09:02:46;;;;;;;8.37;3.43;;;-1.00;99.90;;;;;;5034378;28;38554;-80
2024/01/18 09:05:13;;;;;;;8.20;3.00;;;-0.80;99.90;;;;;;5033002;28;36267;-80
2024/01/18 09:07:40;;;;;;;6.47;2.20;;;-0.70;99.90;;;;;;5031917;28;37973;-81
2024/01/18 09:10:08;;;;;;;4.90;2.13;;;-0.60;99.90;;;;;;5038480;28;39498;-80
2024/01/18 09:22:58;;;;;;;3.03;1.43;;;0.00;99.90;;;;;;6174454;22;19915;-81
2024/01/18 09:26:09;;;;;;;6.17;1.93;;;0.10;99.90;;;;;;5308169;22;35813;-82
2024/01/18 09:28:42;;;;;;;6.53;2.00;;;0.20;99.90;;;;;;5256904;23;47014;-80
2024/01/18 09:31:21;;;;;;;7.50;1.83;;;0.30;99.90;;;;;;5611437;23;37095;-82
2024/01/18 09:33:48;;;;;;;3.77;1.37;;;0.40;99.90;;;;;;5027478;28;40743;-81
2024/01/18 09:46:42;;;;;;;9.13;2.47;;;1.00;99.90;;;;;;3252169;23;20042;-80
2024/01/18 09:49:51;;;;;;;6.10;2.10;;;1.40;99.90;;;;;;5056929;28;38115;-81
2024/01/18 09:53:02;;;;;;;9.77;1.40;;;1.80;99.90;;;;;;5066312;28;39060;-82
2024/01/18 09:55:29;;;;;;;10.57;1.10;;;2.20;99.90;;;;;;5061664;28;46423;-79
2024/01/18 09:58:25;;;;;;;7.63;1.60;;;2.70;91.40;;;;;;5052011;28;37831;-81
2024/01/18 10:03:48;;;;;;;11.97;0.80;;;3.20;47.60;;;;;;5587756;22;20090;-79
2024/01/18 10:06:19;;;;;;;6.10;1.80;;;3.40;22.40;;;;;;5020691;28;38196;-80
2024/01/18 10:11:28;;;;;;;7.97;0.90;;;3.50;23.60;;;;;;5085972;23;20038;-80
2024/01/18 10:13:56;;;;;;;7.67;1.00;;;3.50;35.20;;;;;;5072816;28;38235;-80
2024/01/18 10:16:32;;;;;;;6.10;1.40;;;3.30;39.70;;;;;;5044538;28;36892;-80
2024/01/18 10:19:00;;;;;;;1.57;0.90;;;3.10;47.20;;;;;;5071795;28;37488;-81
2024/01/18 10:21:27;;;;;;;5.37;1.23;;;3.00;57.90;;;;;;5084200;28;37744;-81
2024/01/18 10:23:54;;;;;;;3.90;1.10;;;2.70;72.70;;;;;;5088883;28;37891;-81
2024/01/18 10:26:25;;;;;;;2.57;1.27;;;2.60;83.50;;;;;;5074332;28;37930;-81
2024/01/18 10:28:58;;;;;;;2.87;0.80;;;2.50;92.20;;;;;;5069215;28;37803;-81
2024/01/18 10:31:33;;;;;;;4.30;0.90;;;2.40;95.80;;;;;;5066527;28;39406;-80
2024/01/18 10:34:21;;;;;;;3.57;1.20;;;2.30;99.70;;;;;;5071713;28;39683;-81
2024/01/18 10:37:23;;;;;;;4.50;1.20;;;2.30;99.90;;;;;;5025685;28;49591;-81
2024/01/18 10:40:05;;;;;;;2.23;0.80;;;2.30;99.90;;;;;;5051023;28;49467;-81
2024/01/18 10:42:36;;;;;;;4.73;1.00;;;2.30;99.90;;;;;;5052985;28;39120;-80
2024/01/18 10:45:28;;;;;;;4.03;0.90;;;2.30;99.90;;;;;;5065691;28;39438;-81
2024/01/18 10:48:44;;;;;;;5.40;1.03;;;2.40;99.90;;;;;;5067797;28;39379;-81
2024/01/18 10:54:55;;;;;;;5.63;1.23;;;2.40;99.90;;;;;;5045927;28;41585;-80
2024/01/18 10:58:39;;;;;;;7.13;1.20;;;2.50;99.90;;;;;;4980558;28;39370;-81
2024/01/18 11:02:06;;;;;;;2.70;0.80;;;2.60;99.90;;;;;;4932754;28;49427;-81
2024/01/18 11:05:20;;;;;;;7.93;1.20;;;2.70;99.90;;;;;;4996513;28;49068;-82
2024/01/18 11:08:18;;;;;;;6.30;1.20;;;2.80;96.80;;;;;;5027142;28;39336;-82
2024/01/18 11:26:57;;;;;;;4.07;0.90;;;4.10;3.60;;;;;;5892526;22;20020;-82
2024/01/18 11:29:26;;;;;;;4.27;0.87;;;4.10;1.00;;;;;;5064068;28;37120;-82
2024/01/18 11:34:36;;;;;;;5.47;1.00;;;4.20;1.00;;;;;;5073882;28;20053;-81
2024/01/18 11:39:58;;;;;;;4.87;0.60;;;4.30;1.00;;;;;;5586507;22;20859;-81
2024/01/18 11:42:28;;;;;;;6.37;0.70;;;4.40;1.00;;;;;;5064520;28;38639;-80
2024/01/18 11:45:15;;;;;;;2.47;0.50;;;4.50;1.00;;;;;;5060132;28;39568;-82
2024/01/18 11:47:49;;;;;;;4.50;0.60;;;4.70;1.00;;;;;;5065545;28;47458;-80
2024/01/18 12:00:40;;;;;;;7.50;2.07;;;4.10;52.00;;;;;;6146184;22;20017;-80
2024/01/18 13:18:46;;;;;;;2.90;0.47;;;5.30;31.40;;;;;;6181438;22;21117;-82
2024/01/18 13:26:25;;;;;;;1.07;0.20;;;5.80;1.00;;;;;;5440766;22;20056;-81
2024/01/18 13:28:51;;;;;;;0.53;0.20;;;4.90;9.70;;;;;;5062449;28;36259;-81
2024/01/18 13:37:01;;;;;;;0.87;0.10;;;2.80;99.90;;;;;;5479667;23;20025;-84
2024/01/18 13:40:30;;;;;;;0.37;0.10;;;2.60;99.90;;;;;;5119202;22;48675;-82
2024/01/18 13:47:08;;;;;;;0.77;0.20;;;2.40;99.90;;;;;;5031218;28;50535;-84
2024/01/18 13:55:42;;;;;;;1.10;0.30;;;2.30;99.90;;;;;;5139941;22;20048;-83
2024/01/18 14:03:23;;;;;;;1.57;0.80;;;2.50;99.90;;;;;;5596892;22;20060;-83
2024/01/18 14:06:00;;;;;;;4.70;0.73;;;2.60;99.90;;;;;;5084761;28;39134;-83
2024/01/18 14:08:50;;;;;;;1.30;1.10;;;2.80;99.90;;;;;;5056222;28;38837;-82
2024/01/18 14:11:22;;;;;;;4.50;0.93;;;2.90;99.90;;;;;;5072281;28;38535;-84
2024/01/18 14:13:51;;;;;;;6.90;0.60;;;3.00;99.90;;;;;;5060273;28;35645;-83
2024/01/18 14:17:07;;;;;;;1.67;0.80;;;3.10;99.90;;;;;;5068561;28;38693;-82
2024/01/18 14:19:57;;;;;;;3.27;0.60;;;3.20;99.90;;;;;;5039715;28;48684;-83
2024/01/18 14:22:45;;;;;;;4.50;0.80;;;3.30;99.90;;;;;;5079571;28;39375;-83
2024/01/18 14:25:12;;;;;;;3.50;0.93;;;3.30;99.90;;;;;;5061634;28;37955;-83
2024/01/18 14:27:48;;;;;;;2.07;0.80;;;3.40;99.90;;;;;;5052811;28;36673;-82
2024/01/18 14:30:16;;;;;;;4.53;0.90;;;3.40;99.90;;;;;;5047300;28;38949;-83
2024/01/18 14:32:56;;;;;;;2.57;0.77;;;3.40;99.90;;;;;;5058379;28;37680;-83
2024/01/18 14:35:22;;;;;;;2.30;0.70;;;3.40;99.90;;;;;;5318431;23;37593;-80
2024/01/18 14:37:49;;;;;;;4.03;0.90;;;3.30;99.90;;;;;;5042121;28;37056;-83
2024/01/18 14:45:30;;;;;;;3.50;0.93;;;3.10;99.90;;;;;;5632025;22;20041;-81
2024/01/18 14:48:27;;;;;;;3.00;1.20;;;3.00;99.90;;;;;;5056255;28;37263;-82
2024/01/18 14:50:54;;;;;;;4.40;0.77;;;3.00;99.90;;;;;;5058917;28;49650;-81
2024/01/18 14:53:39;;;;;;;4.77;0.80;;;3.00;99.90;;;;;;5060361;28;37688;-82
2024/01/18 14:56:06;;;;;;;2.70;0.63;;;3.00;99.90;;;;;;5317623;22;38093;-81
2024/01/18 14:58:42;;;;;;;2.63;0.60;;;2.90;99.90;;;;;;5075868;28;36972;-83
2024/01/18 15:01:23;;;;;;;3.47;0.80;;;2.90;99.90;;;;;;5074943;28;38472;-81
2024/01/18 15:06:26;;;;;;;4.33;0.83;;;2.90;99.90;;;;;;5596248;22;20026;-83
2024/01/18 15:08:55;;;;;;;2.70;0.70;;;2.90;99.90;;;;;;5027626;28;37162;-81
2024/01/18 15:14:00;;;;;;;5.60;0.90;;;2.90;99.90;;;;;;5176876;23;20045;-84
2024/01/18 15:16:34;;;;;;;3.17;0.87;;;2.80;99.90;;;;;;5069088;28;38469;-81
2024/01/18 15:19:31;;;;;;;5.47;1.20;;;2.70;99.90;;;;;;5057151;28;38347;-82
2024/01/18 15:22:45;;;;;;;5.17;1.20;;;2.70;99.90;;;;;;5087301;28;40154;-82
2024/01/18 15:26:09;;;;;;;3.50;1.17;;;2.70;99.90;;;;;;5060662;28;39059;-83
2024/01/18 15:55:34;;;;;;;2.83;0.73;;;2.40;99.90;;;;;;5097019;23;20049;-82
2024/01/18 15:58:51;;;;;;;4.93;1.10;;;2.30;99.90;;;;;;5017287;28;38922;-83
2024/01/18 16:01:19;;;;;;;3.03;1.17;;;2.20;99.90;;;;;;5078909;28;38390;-80
2024/01/18 16:03:45;;;;;;;7.37;1.83;;;2.20;99.90;;;;;;5063523;28;36491;-79
2024/01/18 16:06:15;;;;;;;5.80;1.07;;;2.10;99.90;;;;;;5065973;28;38357;-80
2024/01/18 16:08:42;;;;;;;4.57;1.63;;;2.00;99.90;;;;;;5061046;28;39984;-81
2024/01/18 16:11:14;;;;;;;6.03;1.13;;;1.90;99.90;;;;;;5057847;28;35418;-80
2024/01/18 16:13:40;;;;;;;4.03;0.95;;;2.00;99.90;;;;;;5066696;28;37525;-80
2024/01/18 16:16:15;;;;;;;5.73;1.47;;;1.90;99.90;;;;;;5067313;28;39289;-81
2024/01/18 16:18:51;;;;;;;6.77;1.60;;;1.80;99.90;;;;;;5050629;27;39726;-79
2024/01/18 16:21:18;;;;;;;5.50;2.07;;;1.60;99.90;;;;;;5045740;28;38137;-79
2024/01/18 16:23:44;;;;;;;5.43;1.70;;;1.50;99.90;;;;;;5057786;28;38319;-78
2024/01/18 16:26:10;;;;;;;6.27;1.60;;;1.40;99.90;;;;;;5057971;28;38434;-79
2024/01/18 16:28:36;;;;;;;9.23;2.50;;;1.20;99.90;;;;;;5047141;28;38316;-80
2024/01/18 16:31:03;;;;;;;7.97;2.47;;;1.20;99.90;;;;;;5064526;28;37644;-78
2024/01/18 16:33:29;;;;;;;4.07;2.30;;;1.10;99.90;;;;;;5043439;28;47011;-78
2024/01/18 16:35:55;;;;;;;4.43;2.23;;;1.00;99.90;;;;;;5065565;28;38665;-78
2024/01/18 16:38:22;;;;;;;8.07;2.40;;;1.00;99.90;;;;;;5046931;28;37831;-79
2024/01/18 16:40:48;;;;;;;6.63;2.10;;;1.00;99.90;;;;;;5045671;28;35968;-79